sensor_id;sensor_type;location;lat;lon;timestamp;P1;durP1;ratioP1;P2;durP2;ratioP2
43256;SDS011;28860;43.212;27.934;2023-07-29T00:01:35;5.30;;;2.22;;
43256;SDS011;28860;43.212;27.934;2023-07-29T00:04:01;5.57;;;2.15;;
43256;SDS011;28860;43.212;27.934;2023-07-29T00:06:30;6.55;;;1.92;;
43256;SDS011;28860;43.212;27.934;2023-07-29T00:08:56;3.88;;;2.20;;
43256;SDS011;28860;43.212;27.934;2023-07-29T00:11:21;7.93;;;2.17;;
43256;SDS011;28860;43.212;27.934;2023-07-29T00:13:47;8.45;;;2.05;;
43256;SDS011;28860;43.212;27.934;2023-07-29T00:16:15;4.90;;;1.60;;
43256;SDS011;28860;43.212;27.934;2023-07-29T00:18:42;6.15;;;2.28;;
43256;SDS011;28860;43.212;27.934;2023-07-29T00:21:08;3.47;;;1.80;;
43256;SDS011;28860;43.212;27.934;2023-07-29T00:23:37;3.97;;;1.95;;
43256;SDS011;28860;43.212;27.934;2023-07-29T00:26:02;5.72;;;1.73;;
43256;SDS011;28860;43.212;27.934;2023-07-29T00:28:28;4.75;;;2.10;;
43256;SDS011;28860;43.212;27.934;2023-07-29T00:30:54;2.72;;;1.63;;
43256;SDS011;28860;43.212;27.934;2023-07-29T00:33:19;3.20;;;1.55;;
43256;SDS011;28860;43.212;27.934;2023-07-29T00:35:45;3.15;;;1.88;;
43256;SDS011;28860;43.212;27.934;2023-07-29T00:38:11;5.65;;;1.90;;
43256;SDS011;28860;43.212;27.934;2023-07-29T00:40:37;3.53;;;1.88;;
43256;SDS011;28860;43.212;27.934;2023-07-29T00:43:02;3.25;;;1.90;;
43256;SDS011;28860;43.212;27.934;2023-07-29T00:45:28;5.90;;;1.80;;
43256;SDS011;28860;43.212;27.934;2023-07-29T00:47:55;4.97;;;1.55;;
43256;SDS011;28860;43.212;27.934;2023-07-29T00:50:21;5.60;;;2.30;;
43256;SDS011;28860;43.212;27.934;2023-07-29T00:52:48;5.80;;;1.98;;
43256;SDS011;28860;43.212;27.934;2023-07-29T00:55:14;3.42;;;1.70;;
43256;SDS011;28860;43.212;27.934;2023-07-29T00:57:40;4.53;;;1.80;;
43256;SDS011;28860;43.212;27.934;2023-07-29T01:00:07;5.57;;;2.10;;
43256;SDS011;28860;43.212;27.934;2023-07-29T01:02:34;4.28;;;2.15;;
43256;SDS011;28860;43.212;27.934;2023-07-29T01:05:00;6.80;;;2.08;;
43256;SDS011;28860;43.212;27.934;2023-07-29T01:07:33;3.60;;;2.08;;
43256;SDS011;28860;43.212;27.934;2023-07-29T01:10:12;6.22;;;2.15;;
43256;SDS011;28860;43.212;27.934;2023-07-29T01:12:56;7.80;;;2.67;;
43256;SDS011;28860;43.212;27.934;2023-07-29T01:18:19;7.13;;;2.47;;
43256;SDS011;28860;43.212;27.934;2023-07-29T01:20:53;7.15;;;2.60;;
43256;SDS011;28860;43.212;27.934;2023-07-29T01:23:24;5.28;;;2.28;;
43256;SDS011;28860;43.212;27.934;2023-07-29T01:26:00;8.90;;;2.40;;
43256;SDS011;28860;43.212;27.934;2023-07-29T01:28:26;4.47;;;2.30;;
43256;SDS011;28860;43.212;27.934;2023-07-29T01:30:55;6.65;;;2.15;;
43256;SDS011;28860;43.212;27.934;2023-07-29T01:33:27;6.30;;;2.40;;
43256;SDS011;28860;43.212;27.934;2023-07-29T01:36:03;5.63;;;2.58;;
43256;SDS011;28860;43.212;27.934;2023-07-29T01:38:35;9.95;;;2.40;;
43256;SDS011;28860;43.212;27.934;2023-07-29T01:41:04;7.82;;;2.58;;
43256;SDS011;28860;43.212;27.934;2023-07-29T01:43:34;7.78;;;3.13;;
43256;SDS011;28860;43.212;27.934;2023-07-29T01:46:07;12.10;;;3.65;;
43256;SDS011;28860;43.212;27.934;2023-07-29T01:48:40;11.18;;;3.60;;
43256;SDS011;28860;43.212;27.934;2023-07-29T01:51:06;12.18;;;4.53;;
43256;SDS011;28860;43.212;27.934;2023-07-29T01:53:34;8.20;;;3.38;;
43256;SDS011;28860;43.212;27.934;2023-07-29T01:56:01;9.00;;;3.20;;
43256;SDS011;28860;43.212;27.934;2023-07-29T01:58:27;6.35;;;3.05;;
43256;SDS011;28860;43.212;27.934;2023-07-29T02:00:52;10.88;;;3.72;;
43256;SDS011;28860;43.212;27.934;2023-07-29T02:03:21;9.43;;;3.40;;
43256;SDS011;28860;43.212;27.934;2023-07-29T02:05:49;13.13;;;3.88;;
43256;SDS011;28860;43.212;27.934;2023-07-29T02:08:15;8.40;;;3.50;;
43256;SDS011;28860;43.212;27.934;2023-07-29T02:10:40;13.30;;;3.97;;
43256;SDS011;28860;43.212;27.934;2023-07-29T02:13:07;6.50;;;3.40;;
43256;SDS011;28860;43.212;27.934;2023-07-29T02:15:34;13.57;;;4.45;;
43256;SDS011;28860;43.212;27.934;2023-07-29T02:17:59;9.88;;;4.38;;
43256;SDS011;28860;43.212;27.934;2023-07-29T02:20:27;9.82;;;3.92;;
43256;SDS011;28860;43.212;27.934;2023-07-29T02:22:52;12.30;;;4.80;;
43256;SDS011;28860;43.212;27.934;2023-07-29T02:25:18;11.85;;;5.03;;
43256;SDS011;28860;43.212;27.934;2023-07-29T02:27:43;13.65;;;4.25;;
43256;SDS011;28860;43.212;27.934;2023-07-29T02:30:12;14.90;;;4.55;;
43256;SDS011;28860;43.212;27.934;2023-07-29T02:32:38;12.88;;;3.88;;
43256;SDS011;28860;43.212;27.934;2023-07-29T02:35:03;13.40;;;4.68;;
43256;SDS011;28860;43.212;27.934;2023-07-29T02:37:34;11.30;;;4.70;;
43256;SDS011;28860;43.212;27.934;2023-07-29T02:40:02;12.82;;;4.78;;
43256;SDS011;28860;43.212;27.934;2023-07-29T02:42:31;14.70;;;4.63;;
43256;SDS011;28860;43.212;27.934;2023-07-29T02:44:59;9.57;;;4.28;;
43256;SDS011;28860;43.212;27.934;2023-07-29T02:47:25;15.95;;;4.28;;
43256;SDS011;28860;43.212;27.934;2023-07-29T02:49:50;10.48;;;3.90;;
43256;SDS011;28860;43.212;27.934;2023-07-29T02:52:16;11.95;;;4.70;;
43256;SDS011;28860;43.212;27.934;2023-07-29T02:54:42;15.52;;;4.60;;
43256;SDS011;28860;43.212;27.934;2023-07-29T02:57:07;14.73;;;4.38;;
43256;SDS011;28860;43.212;27.934;2023-07-29T02:59:35;11.43;;;4.32;;
43256;SDS011;28860;43.212;27.934;2023-07-29T03:02:01;9.68;;;4.05;;
43256;SDS011;28860;43.212;27.934;2023-07-29T03:04:26;12.55;;;4.57;;
43256;SDS011;28860;43.212;27.934;2023-07-29T03:06:58;10.18;;;4.40;;
43256;SDS011;28860;43.212;27.934;2023-07-29T03:09:26;9.33;;;4.73;;
43256;SDS011;28860;43.212;27.934;2023-07-29T03:11:52;10.90;;;4.38;;
43256;SDS011;28860;43.212;27.934;2023-07-29T03:14:19;13.05;;;4.70;;
43256;SDS011;28860;43.212;27.934;2023-07-29T03:16:46;10.23;;;4.47;;
43256;SDS011;28860;43.212;27.934;2023-07-29T03:19:14;8.13;;;4.40;;
43256;SDS011;28860;43.212;27.934;2023-07-29T03:21:40;13.05;;;4.82;;
43256;SDS011;28860;43.212;27.934;2023-07-29T03:24:08;12.82;;;4.65;;
43256;SDS011;28860;43.212;27.934;2023-07-29T03:26:34;11.90;;;4.43;;
43256;SDS011;28860;43.212;27.934;2023-07-29T03:29:00;12.80;;;4.63;;
43256;SDS011;28860;43.212;27.934;2023-07-29T03:31:25;17.95;;;4.68;;
43256;SDS011;28860;43.212;27.934;2023-07-29T03:33:51;9.70;;;4.45;;
43256;SDS011;28860;43.212;27.934;2023-07-29T03:36:17;14.15;;;3.50;;
43256;SDS011;28860;43.212;27.934;2023-07-29T03:38:45;10.18;;;4.03;;
43256;SDS011;28860;43.212;27.934;2023-07-29T03:41:11;14.05;;;4.10;;
43256;SDS011;28860;43.212;27.934;2023-07-29T03:43:37;17.48;;;5.13;;
43256;SDS011;28860;43.212;27.934;2023-07-29T03:46:05;16.02;;;4.60;;
43256;SDS011;28860;43.212;27.934;2023-07-29T03:48:31;18.73;;;4.72;;
43256;SDS011;28860;43.212;27.934;2023-07-29T03:50:57;9.63;;;4.72;;
43256;SDS011;28860;43.212;27.934;2023-07-29T03:53:22;13.18;;;4.10;;
43256;SDS011;28860;43.212;27.934;2023-07-29T03:55:48;12.80;;;4.38;;
43256;SDS011;28860;43.212;27.934;2023-07-29T03:58:15;16.02;;;4.28;;
43256;SDS011;28860;43.212;27.934;2023-07-29T04:00:40;15.73;;;5.05;;
43256;SDS011;28860;43.212;27.934;2023-07-29T04:03:06;13.40;;;4.68;;
43256;SDS011;28860;43.212;27.934;2023-07-29T04:05:32;18.25;;;4.38;;
43256;SDS011;28860;43.212;27.934;2023-07-29T04:07:58;16.02;;;4.75;;
43256;SDS011;28860;43.212;27.934;2023-07-29T04:10:23;13.63;;;4.38;;
43256;SDS011;28860;43.212;27.934;2023-07-29T04:12:49;13.77;;;4.72;;
43256;SDS011;28860;43.212;27.934;2023-07-29T04:15:15;17.35;;;4.47;;
43256;SDS011;28860;43.212;27.934;2023-07-29T04:17:41;9.52;;;3.90;;
43256;SDS011;28860;43.212;27.934;2023-07-29T04:20:09;8.55;;;4.10;;
43256;SDS011;28860;43.212;27.934;2023-07-29T04:22:35;6.32;;;3.90;;
43256;SDS011;28860;43.212;27.934;2023-07-29T04:25:01;11.52;;;3.70;;
43256;SDS011;28860;43.212;27.934;2023-07-29T04:27:27;13.52;;;4.30;;
43256;SDS011;28860;43.212;27.934;2023-07-29T04:29:52;13.27;;;3.80;;
43256;SDS011;28860;43.212;27.934;2023-07-29T04:32:18;11.15;;;3.85;;
43256;SDS011;28860;43.212;27.934;2023-07-29T04:34:44;9.55;;;4.00;;
43256;SDS011;28860;43.212;27.934;2023-07-29T04:37:10;8.90;;;3.60;;
43256;SDS011;28860;43.212;27.934;2023-07-29T04:39:35;12.38;;;3.83;;
43256;SDS011;28860;43.212;27.934;2023-07-29T04:42:01;17.15;;;4.05;;
43256;SDS011;28860;43.212;27.934;2023-07-29T04:44:29;10.32;;;4.20;;
43256;SDS011;28860;43.212;27.934;2023-07-29T04:46:57;16.33;;;4.00;;
43256;SDS011;28860;43.212;27.934;2023-07-29T04:49:23;16.27;;;4.38;;
43256;SDS011;28860;43.212;27.934;2023-07-29T04:51:48;18.25;;;5.15;;
43256;SDS011;28860;43.212;27.934;2023-07-29T04:54:14;16.80;;;5.18;;
43256;SDS011;28860;43.212;27.934;2023-07-29T04:56:39;23.30;;;6.43;;
43256;SDS011;28860;43.212;27.934;2023-07-29T04:59:05;19.83;;;9.65;;
43256;SDS011;28860;43.212;27.934;2023-07-29T05:01:33;28.98;;;11.82;;
43256;SDS011;28860;43.212;27.934;2023-07-29T05:03:59;25.85;;;11.27;;
43256;SDS011;28860;43.212;27.934;2023-07-29T05:06:25;26.25;;;13.07;;
43256;SDS011;28860;43.212;27.934;2023-07-29T05:08:53;25.25;;;15.52;;
43256;SDS011;28860;43.212;27.934;2023-07-29T05:11:19;30.00;;;15.13;;
43256;SDS011;28860;43.212;27.934;2023-07-29T05:13:45;28.10;;;16.55;;
43256;SDS011;28860;43.212;27.934;2023-07-29T05:16:10;36.53;;;19.88;;
43256;SDS011;28860;43.212;27.934;2023-07-29T05:18:36;32.63;;;20.33;;
43256;SDS011;28860;43.212;27.934;2023-07-29T05:21:02;36.10;;;21.05;;
43256;SDS011;28860;43.212;27.934;2023-07-29T05:23:29;36.95;;;21.63;;
43256;SDS011;28860;43.212;27.934;2023-07-29T05:25:55;42.65;;;24.75;;
43256;SDS011;28860;43.212;27.934;2023-07-29T05:28:21;44.35;;;30.42;;
43256;SDS011;28860;43.212;27.934;2023-07-29T05:30:46;49.20;;;30.35;;
43256;SDS011;28860;43.212;27.934;2023-07-29T05:33:12;49.83;;;30.23;;
43256;SDS011;28860;43.212;27.934;2023-07-29T05:35:37;46.42;;;27.88;;
43256;SDS011;28860;43.212;27.934;2023-07-29T05:38:03;41.05;;;24.38;;
43256;SDS011;28860;43.212;27.934;2023-07-29T05:40:33;38.83;;;23.73;;
43256;SDS011;28860;43.212;27.934;2023-07-29T05:42:59;36.67;;;20.77;;
43256;SDS011;28860;43.212;27.934;2023-07-29T05:45:28;34.60;;;18.73;;
43256;SDS011;28860;43.212;27.934;2023-07-29T05:47:56;41.45;;;15.65;;
43256;SDS011;28860;43.212;27.934;2023-07-29T05:50:21;33.08;;;13.70;;
43256;SDS011;28860;43.212;27.934;2023-07-29T05:52:47;16.23;;;10.52;;
43256;SDS011;28860;43.212;27.934;2023-07-29T05:55:12;21.25;;;10.80;;
43256;SDS011;28860;43.212;27.934;2023-07-29T05:57:42;24.23;;;11.75;;
43256;SDS011;28860;43.212;27.934;2023-07-29T06:00:08;20.42;;;9.40;;
43256;SDS011;28860;43.212;27.934;2023-07-29T06:02:49;24.65;;;9.10;;
43256;SDS011;28860;43.212;27.934;2023-07-29T06:05:29;16.05;;;8.57;;
43256;SDS011;28860;43.212;27.934;2023-07-29T06:08:13;25.17;;;10.00;;
43256;SDS011;28860;43.212;27.934;2023-07-29T06:10:49;20.00;;;10.00;;
43256;SDS011;28860;43.212;27.934;2023-07-29T06:13:54;26.30;;;10.32;;
43256;SDS011;28860;43.212;27.934;2023-07-29T06:16:55;21.10;;;9.93;;
43256;SDS011;28860;43.212;27.934;2023-07-29T06:19:30;20.58;;;10.88;;
43256;SDS011;28860;43.212;27.934;2023-07-29T06:22:27;21.27;;;10.57;;
43256;SDS011;28860;43.212;27.934;2023-07-29T06:25:15;20.42;;;10.77;;
43256;SDS011;28860;43.212;27.934;2023-07-29T06:27:47;23.33;;;10.48;;
43256;SDS011;28860;43.212;27.934;2023-07-29T06:30:21;20.52;;;10.43;;
43256;SDS011;28860;43.212;27.934;2023-07-29T06:33:09;28.10;;;11.27;;
43256;SDS011;28860;43.212;27.934;2023-07-29T06:35:49;30.27;;;12.90;;
43256;SDS011;28860;43.212;27.934;2023-07-29T06:38:30;25.88;;;11.43;;
43256;SDS011;28860;43.212;27.934;2023-07-29T06:41:21;20.42;;;10.68;;
43256;SDS011;28860;43.212;27.934;2023-07-29T06:46:47;24.20;;;10.38;;
43256;SDS011;28860;43.212;27.934;2023-07-29T06:49:37;24.15;;;8.77;;
43256;SDS011;28860;43.212;27.934;2023-07-29T06:52:18;17.13;;;8.15;;
43256;SDS011;28860;43.212;27.934;2023-07-29T06:54:50;17.00;;;7.43;;
43256;SDS011;28860;43.212;27.934;2023-07-29T06:57:20;17.88;;;6.97;;
43256;SDS011;28860;43.212;27.934;2023-07-29T06:59:46;10.82;;;6.05;;
43256;SDS011;28860;43.212;27.934;2023-07-29T07:02:11;16.92;;;6.10;;
43256;SDS011;28860;43.212;27.934;2023-07-29T07:04:37;20.48;;;6.47;;
43256;SDS011;28860;43.212;27.934;2023-07-29T07:07:03;16.73;;;6.15;;
43256;SDS011;28860;43.212;27.934;2023-07-29T07:09:28;22.90;;;7.00;;
43256;SDS011;28860;43.212;27.934;2023-07-29T07:11:54;15.73;;;6.20;;
43256;SDS011;28860;43.212;27.934;2023-07-29T07:14:20;10.60;;;5.57;;
43256;SDS011;28860;43.212;27.934;2023-07-29T07:16:45;12.13;;;5.57;;
43256;SDS011;28860;43.212;27.934;2023-07-29T07:19:11;10.55;;;4.97;;
43256;SDS011;28860;43.212;27.934;2023-07-29T07:21:36;12.40;;;5.80;;
43256;SDS011;28860;43.212;27.934;2023-07-29T07:24:02;9.95;;;5.43;;
43256;SDS011;28860;43.212;27.934;2023-07-29T07:26:28;14.15;;;5.50;;
43256;SDS011;28860;43.212;27.934;2023-07-29T07:28:54;6.60;;;4.15;;
43256;SDS011;28860;43.212;27.934;2023-07-29T07:31:19;10.00;;;4.60;;
43256;SDS011;28860;43.212;27.934;2023-07-29T07:33:45;8.77;;;4.38;;
43256;SDS011;28860;43.212;27.934;2023-07-29T07:36:11;11.98;;;4.53;;
43256;SDS011;28860;43.212;27.934;2023-07-29T07:38:36;16.58;;;4.55;;
43256;SDS011;28860;43.212;27.934;2023-07-29T07:41:02;15.00;;;4.20;;
43256;SDS011;28860;43.212;27.934;2023-07-29T07:43:27;11.05;;;4.97;;
43256;SDS011;28860;43.212;27.934;2023-07-29T07:46:00;15.07;;;4.78;;
43256;SDS011;28860;43.212;27.934;2023-07-29T07:48:27;7.43;;;4.18;;
43256;SDS011;28860;43.212;27.934;2023-07-29T07:50:53;9.43;;;4.65;;
43256;SDS011;28860;43.212;27.934;2023-07-29T07:53:19;12.07;;;6.20;;
43256;SDS011;28860;43.212;27.934;2023-07-29T07:55:45;13.00;;;5.63;;
43256;SDS011;28860;43.212;27.934;2023-07-29T07:58:10;11.65;;;5.65;;
43256;SDS011;28860;43.212;27.934;2023-07-29T08:00:44;11.30;;;5.13;;
43256;SDS011;28860;43.212;27.934;2023-07-29T08:03:37;12.98;;;5.95;;
43256;SDS011;28860;43.212;27.934;2023-07-29T08:06:03;16.38;;;5.78;;
43256;SDS011;28860;43.212;27.934;2023-07-29T08:08:29;9.13;;;4.72;;
43256;SDS011;28860;43.212;27.934;2023-07-29T08:10:56;8.15;;;4.85;;
43256;SDS011;28860;43.212;27.934;2023-07-29T08:13:22;12.13;;;4.68;;
43256;SDS011;28860;43.212;27.934;2023-07-29T08:15:49;11.98;;;3.35;;
43256;SDS011;28860;43.212;27.934;2023-07-29T08:18:16;4.47;;;2.70;;
43256;SDS011;28860;43.212;27.934;2023-07-29T08:20:55;7.13;;;2.53;;
43256;SDS011;28860;43.212;27.934;2023-07-29T08:23:33;8.00;;;3.20;;
43256;SDS011;28860;43.212;27.934;2023-07-29T08:26:01;7.20;;;2.80;;
43256;SDS011;28860;43.212;27.934;2023-07-29T08:28:37;10.38;;;4.25;;
43256;SDS011;28860;43.212;27.934;2023-07-29T08:31:03;10.00;;;3.50;;
43256;SDS011;28860;43.212;27.934;2023-07-29T08:33:30;8.10;;;3.15;;
43256;SDS011;28860;43.212;27.934;2023-07-29T08:35:56;7.40;;;3.33;;
43256;SDS011;28860;43.212;27.934;2023-07-29T08:38:24;15.93;;;3.50;;
43256;SDS011;28860;43.212;27.934;2023-07-29T08:43:38;14.00;;;3.47;;
43256;SDS011;28860;43.212;27.934;2023-07-29T08:46:08;6.63;;;3.13;;
43256;SDS011;28860;43.212;27.934;2023-07-29T08:48:44;8.80;;;3.70;;
43256;SDS011;28860;43.212;27.934;2023-07-29T08:51:11;5.85;;;3.40;;
43256;SDS011;28860;43.212;27.934;2023-07-29T08:53:38;7.28;;;3.53;;
43256;SDS011;28860;43.212;27.934;2023-07-29T08:56:04;6.43;;;3.10;;
43256;SDS011;28860;43.212;27.934;2023-07-29T08:58:32;10.55;;;3.25;;
43256;SDS011;28860;43.212;27.934;2023-07-29T09:00:58;8.60;;;3.08;;
43256;SDS011;28860;43.212;27.934;2023-07-29T09:03:23;6.57;;;3.15;;
43256;SDS011;28860;43.212;27.934;2023-07-29T09:05:51;8.18;;;3.60;;
43256;SDS011;28860;43.212;27.934;2023-07-29T09:08:20;6.57;;;3.38;;
43256;SDS011;28860;43.212;27.934;2023-07-29T09:10:46;10.75;;;3.47;;
43256;SDS011;28860;43.212;27.934;2023-07-29T09:13:12;5.32;;;3.10;;
43256;SDS011;28860;43.212;27.934;2023-07-29T09:15:38;6.18;;;2.78;;
43256;SDS011;28860;43.212;27.934;2023-07-29T09:18:37;5.60;;;2.40;;
43256;SDS011;28860;43.212;27.934;2023-07-29T09:20:56;4.47;;;2.13;;
43256;SDS011;28860;43.212;27.934;2023-07-29T09:23:27;4.73;;;2.80;;
43256;SDS011;28860;43.212;27.934;2023-07-29T09:26:03;5.60;;;2.60;;
43256;SDS011;28860;43.212;27.934;2023-07-29T09:28:35;6.53;;;2.30;;
43256;SDS011;28860;43.212;27.934;2023-07-29T09:31:02;4.17;;;2.33;;
43256;SDS011;28860;43.212;27.934;2023-07-29T09:33:29;6.63;;;2.35;;
43256;SDS011;28860;43.212;27.934;2023-07-29T09:35:56;4.78;;;2.30;;
43256;SDS011;28860;43.212;27.934;2023-07-29T09:38:26;7.72;;;2.95;;
43256;SDS011;28860;43.212;27.934;2023-07-29T09:40:54;6.07;;;2.33;;
43256;SDS011;28860;43.212;27.934;2023-07-29T09:43:25;4.10;;;2.50;;
43256;SDS011;28860;43.212;27.934;2023-07-29T09:45:53;4.15;;;2.30;;
43256;SDS011;28860;43.212;27.934;2023-07-29T09:48:26;3.95;;;1.90;;
43256;SDS011;28860;43.212;27.934;2023-07-29T09:50:54;7.82;;;2.65;;
43256;SDS011;28860;43.212;27.934;2023-07-29T09:53:20;5.95;;;2.65;;
43256;SDS011;28860;43.212;27.934;2023-07-29T09:55:47;5.60;;;2.50;;
43256;SDS011;28860;43.212;27.934;2023-07-29T09:58:19;6.32;;;2.85;;
43256;SDS011;28860;43.212;27.934;2023-07-29T10:00:51;10.07;;;3.33;;
43256;SDS011;28860;43.212;27.934;2023-07-29T10:03:17;7.60;;;3.30;;
43256;SDS011;28860;43.212;27.934;2023-07-29T10:05:45;12.40;;;4.03;;
43256;SDS011;28860;43.212;27.934;2023-07-29T10:08:14;7.32;;;2.70;;
43256;SDS011;28860;43.212;27.934;2023-07-29T10:10:43;6.70;;;2.50;;
43256;SDS011;28860;43.212;27.934;2023-07-29T10:13:09;6.75;;;2.55;;
43256;SDS011;28860;43.212;27.934;2023-07-29T10:15:35;11.27;;;2.42;;
43256;SDS011;28860;43.212;27.934;2023-07-29T10:18:02;23.55;;;3.63;;
43256;SDS011;28860;43.212;27.934;2023-07-29T10:20:29;19.55;;;3.45;;
43256;SDS011;28860;43.212;27.934;2023-07-29T10:22:58;33.75;;;3.97;;
43256;SDS011;28860;43.212;27.934;2023-07-29T10:25:27;14.43;;;3.05;;
43256;SDS011;28860;43.212;27.934;2023-07-29T10:28:08;8.50;;;2.75;;
43256;SDS011;28860;43.212;27.934;2023-07-29T10:30:41;8.60;;;2.20;;
43256;SDS011;28860;43.212;27.934;2023-07-29T10:33:07;10.07;;;2.60;;
43256;SDS011;28860;43.212;27.934;2023-07-29T10:35:33;3.80;;;2.40;;
43256;SDS011;28860;43.212;27.934;2023-07-29T10:37:59;10.13;;;2.33;;
43256;SDS011;28860;43.212;27.934;2023-07-29T10:40:27;5.20;;;2.30;;
43256;SDS011;28860;43.212;27.934;2023-07-29T10:43:09;5.25;;;2.10;;
43256;SDS011;28860;43.212;27.934;2023-07-29T10:45:37;5.40;;;2.40;;
43256;SDS011;28860;43.212;27.934;2023-07-29T10:48:10;8.77;;;2.85;;
43256;SDS011;28860;43.212;27.934;2023-07-29T10:50:37;6.80;;;2.70;;
43256;SDS011;28860;43.212;27.934;2023-07-29T10:53:03;7.88;;;2.70;;
43256;SDS011;28860;43.212;27.934;2023-07-29T10:55:30;5.45;;;2.15;;
43256;SDS011;28860;43.212;27.934;2023-07-29T10:58:14;7.30;;;3.03;;
43256;SDS011;28860;43.212;27.934;2023-07-29T11:00:46;7.65;;;3.10;;
43256;SDS011;28860;43.212;27.934;2023-07-29T11:03:12;10.02;;;3.47;;
43256;SDS011;28860;43.212;27.934;2023-07-29T11:05:43;24.95;;;4.20;;
43256;SDS011;28860;43.212;27.934;2023-07-29T11:10:57;8.00;;;2.63;;
43256;SDS011;28860;43.212;27.934;2023-07-29T11:13:28;3.75;;;2.40;;
43256;SDS011;28860;43.212;27.934;2023-07-29T11:15:55;6.68;;;2.60;;
43256;SDS011;28860;43.212;27.934;2023-07-29T11:18:25;7.57;;;2.10;;
43256;SDS011;28860;43.212;27.934;2023-07-29T11:20:53;3.83;;;2.10;;
43256;SDS011;28860;43.212;27.934;2023-07-29T11:23:20;9.13;;;2.25;;
43256;SDS011;28860;43.212;27.934;2023-07-29T11:25:53;7.60;;;2.58;;
43256;SDS011;28860;43.212;27.934;2023-07-29T11:28:19;7.43;;;2.33;;
43256;SDS011;28860;43.212;27.934;2023-07-29T11:30:45;8.35;;;2.40;;
43256;SDS011;28860;43.212;27.934;2023-07-29T11:33:10;7.90;;;2.88;;
43256;SDS011;28860;43.212;27.934;2023-07-29T11:35:37;83.28;;;6.40;;
43256;SDS011;28860;43.212;27.934;2023-07-29T11:38:03;22.17;;;4.20;;
43256;SDS011;28860;43.212;27.934;2023-07-29T11:40:29;19.35;;;3.40;;
43256;SDS011;28860;43.212;27.934;2023-07-29T11:42:54;14.98;;;2.92;;
43256;SDS011;28860;43.212;27.934;2023-07-29T11:45:21;5.43;;;2.45;;
43256;SDS011;28860;43.212;27.934;2023-07-29T11:47:47;9.13;;;2.60;;
43256;SDS011;28860;43.212;27.934;2023-07-29T11:50:13;9.75;;;2.83;;
43256;SDS011;28860;43.212;27.934;2023-07-29T11:52:42;8.52;;;2.55;;
43256;SDS011;28860;43.212;27.934;2023-07-29T11:55:10;16.42;;;3.20;;
43256;SDS011;28860;43.212;27.934;2023-07-29T11:57:37;24.42;;;3.78;;
43256;SDS011;28860;43.212;27.934;2023-07-29T12:00:04;10.38;;;3.35;;
43256;SDS011;28860;43.212;27.934;2023-07-29T12:02:42;5.47;;;2.55;;
43256;SDS011;28860;43.212;27.934;2023-07-29T12:05:11;8.13;;;2.10;;
43256;SDS011;28860;43.212;27.934;2023-07-29T12:07:39;6.45;;;2.60;;
43256;SDS011;28860;43.212;27.934;2023-07-29T12:10:08;7.55;;;2.50;;
43256;SDS011;28860;43.212;27.934;2023-07-29T12:12:44;5.13;;;2.42;;
43256;SDS011;28860;43.212;27.934;2023-07-29T12:15:13;5.55;;;2.33;;
43256;SDS011;28860;43.212;27.934;2023-07-29T12:17:39;9.43;;;2.28;;
43256;SDS011;28860;43.212;27.934;2023-07-29T12:20:08;5.60;;;2.40;;
43256;SDS011;28860;43.212;27.934;2023-07-29T12:22:35;10.00;;;3.30;;
43256;SDS011;28860;43.212;27.934;2023-07-29T12:25:03;8.98;;;3.72;;
43256;SDS011;28860;43.212;27.934;2023-07-29T12:27:30;10.07;;;3.90;;
43256;SDS011;28860;43.212;27.934;2023-07-29T12:29:56;10.10;;;4.53;;
43256;SDS011;28860;43.212;27.934;2023-07-29T12:32:24;8.55;;;3.90;;
43256;SDS011;28860;43.212;27.934;2023-07-29T12:34:52;11.18;;;5.40;;
43256;SDS011;28860;43.212;27.934;2023-07-29T12:37:18;11.65;;;3.42;;
43256;SDS011;28860;43.212;27.934;2023-07-29T12:39:44;10.95;;;3.67;;
43256;SDS011;28860;43.212;27.934;2023-07-29T12:42:10;10.25;;;3.35;;
43256;SDS011;28860;43.212;27.934;2023-07-29T12:44:38;6.45;;;2.72;;
43256;SDS011;28860;43.212;27.934;2023-07-29T12:47:05;8.25;;;2.50;;
43256;SDS011;28860;43.212;27.934;2023-07-29T12:49:33;11.52;;;4.05;;
43256;SDS011;28860;43.212;27.934;2023-07-29T12:51:59;16.95;;;4.57;;
43256;SDS011;28860;43.212;27.934;2023-07-29T12:54:25;14.00;;;3.58;;
43256;SDS011;28860;43.212;27.934;2023-07-29T12:56:51;11.73;;;2.95;;
43256;SDS011;28860;43.212;27.934;2023-07-29T12:59:17;5.88;;;2.47;;
43256;SDS011;28860;43.212;27.934;2023-07-29T13:01:43;13.07;;;3.42;;
43256;SDS011;28860;43.212;27.934;2023-07-29T13:04:11;10.55;;;2.88;;
43256;SDS011;28860;43.212;27.934;2023-07-29T13:06:36;8.60;;;3.55;;
43256;SDS011;28860;43.212;27.934;2023-07-29T13:09:02;9.82;;;3.47;;
43256;SDS011;28860;43.212;27.934;2023-07-29T13:11:28;11.23;;;2.85;;
43256;SDS011;28860;43.212;27.934;2023-07-29T13:13:57;5.10;;;2.67;;
43256;SDS011;28860;43.212;27.934;2023-07-29T13:16:23;6.72;;;2.50;;
43256;SDS011;28860;43.212;27.934;2023-07-29T13:18:48;7.10;;;1.80;;
43256;SDS011;28860;43.212;27.934;2023-07-29T13:21:15;6.63;;;2.20;;
43256;SDS011;28860;43.212;27.934;2023-07-29T13:23:40;11.45;;;2.10;;
43256;SDS011;28860;43.212;27.934;2023-07-29T13:26:06;7.82;;;2.55;;
43256;SDS011;28860;43.212;27.934;2023-07-29T13:28:31;6.03;;;2.22;;
43256;SDS011;28860;43.212;27.934;2023-07-29T13:30:57;9.77;;;2.17;;
43256;SDS011;28860;43.212;27.934;2023-07-29T13:33:23;9.80;;;3.70;;
43256;SDS011;28860;43.212;27.934;2023-07-29T13:35:48;8.07;;;3.50;;
43256;SDS011;28860;43.212;27.934;2023-07-29T13:38:14;7.60;;;2.80;;
43256;SDS011;28860;43.212;27.934;2023-07-29T13:40:39;6.70;;;2.25;;
43256;SDS011;28860;43.212;27.934;2023-07-29T13:43:05;7.72;;;2.67;;
43256;SDS011;28860;43.212;27.934;2023-07-29T13:45:31;9.60;;;2.72;;
43256;SDS011;28860;43.212;27.934;2023-07-29T13:47:56;7.32;;;2.20;;
43256;SDS011;28860;43.212;27.934;2023-07-29T13:50:22;5.80;;;2.10;;
43256;SDS011;28860;43.212;27.934;2023-07-29T13:52:48;9.63;;;2.70;;
43256;SDS011;28860;43.212;27.934;2023-07-29T13:55:13;5.18;;;2.35;;
43256;SDS011;28860;43.212;27.934;2023-07-29T13:57:39;3.40;;;1.50;;
43256;SDS011;28860;43.212;27.934;2023-07-29T14:00:05;6.75;;;1.90;;
43256;SDS011;28860;43.212;27.934;2023-07-29T14:02:33;7.53;;;1.92;;
43256;SDS011;28860;43.212;27.934;2023-07-29T14:04:59;7.97;;;2.00;;
43256;SDS011;28860;43.212;27.934;2023-07-29T14:07:24;3.15;;;1.70;;
43256;SDS011;28860;43.212;27.934;2023-07-29T14:09:50;7.53;;;1.90;;
43256;SDS011;28860;43.212;27.934;2023-07-29T14:12:15;6.20;;;2.58;;
43256;SDS011;28860;43.212;27.934;2023-07-29T14:14:41;4.05;;;1.95;;
43256;SDS011;28860;43.212;27.934;2023-07-29T14:17:07;3.70;;;1.40;;
43256;SDS011;28860;43.212;27.934;2023-07-29T14:19:36;6.05;;;1.60;;
43256;SDS011;28860;43.212;27.934;2023-07-29T14:22:02;4.53;;;2.00;;
43256;SDS011;28860;43.212;27.934;2023-07-29T14:24:28;6.72;;;1.88;;
43256;SDS011;28860;43.212;27.934;2023-07-29T14:26:54;4.70;;;1.45;;
43256;SDS011;28860;43.212;27.934;2023-07-29T14:29:22;5.45;;;1.83;;
43256;SDS011;28860;43.212;27.934;2023-07-29T14:31:47;5.95;;;1.83;;
43256;SDS011;28860;43.212;27.934;2023-07-29T14:34:13;5.57;;;1.70;;
43256;SDS011;28860;43.212;27.934;2023-07-29T14:36:38;7.70;;;1.75;;
43256;SDS011;28860;43.212;27.934;2023-07-29T14:39:04;4.25;;;1.83;;
43256;SDS011;28860;43.212;27.934;2023-07-29T14:41:30;2.70;;;1.70;;
43256;SDS011;28860;43.212;27.934;2023-07-29T14:43:56;3.88;;;1.60;;